createdAt,value
2019-05-07T00:02:23.942Z,61.50
2019-05-07T00:04:52.767Z,60.70
2019-05-07T00:07:22.424Z,63.10
2019-05-07T00:09:52.565Z,63.60
2019-05-07T00:12:23.090Z,62.80
2019-05-07T00:15:00.916Z,64.10
2019-05-07T00:17:22.924Z,64.90
2019-05-07T00:19:52.597Z,64.20
2019-05-07T00:22:22.690Z,67.40
2019-05-07T00:24:52.229Z,68.30
2019-05-07T00:27:22.575Z,68.80
2019-05-07T00:29:52.137Z,68.70
2019-05-07T00:32:22.127Z,69.40
2019-05-07T00:35:02.482Z,70.10
2019-05-07T00:37:35.931Z,71.40
2019-05-07T00:40:13.688Z,71.20
2019-05-07T00:43:02.578Z,71.50
2019-05-07T00:45:42.104Z,72.50
2019-05-07T00:48:12.676Z,73.20
2019-05-07T00:50:43.415Z,73.90
2019-05-07T00:53:13.097Z,74.50
2019-05-07T00:55:42.385Z,74.90
2019-05-07T00:58:13.253Z,75.80
2019-05-07T01:00:42.270Z,77.00
2019-05-07T01:03:12.868Z,77.60
2019-05-07T01:05:43.170Z,78.20
2019-05-07T01:08:13.143Z,78.60
2019-05-07T01:10:42.389Z,78.40
2019-05-07T01:13:12.567Z,77.90
2019-05-07T01:15:42.990Z,76.50
2019-05-07T01:18:12.432Z,77.10
2019-05-07T01:20:42.322Z,76.20
2019-05-07T01:23:13.442Z,76.30
2019-05-07T01:25:43.028Z,78.00
2019-05-07T01:28:13.206Z,76.00
2019-05-07T01:30:43.225Z,75.20
2019-05-07T01:33:13.816Z,74.70
2019-05-07T01:35:44.265Z,75.20
2019-05-07T01:38:15.136Z,75.00
2019-05-07T01:40:44.007Z,72.10
2019-05-07T01:43:12.836Z,70.70
2019-05-07T01:45:49.496Z,67.70
2019-05-07T01:48:16.043Z,65.90
2019-05-07T01:50:44.871Z,64.30
2019-05-07T01:53:13.724Z,60.50
2019-05-07T01:55:42.916Z,60.70
2019-05-07T01:58:12.511Z,59.50
2019-05-07T02:00:42.426Z,59.50
2019-05-07T02:03:16.023Z,59.20
2019-05-07T02:06:02.214Z,58.90
2019-05-07T02:08:44.678Z,58.80
2019-05-07T02:11:14.228Z,57.50
2019-05-07T02:13:43.064Z,56.90
2019-05-07T02:16:12.457Z,57.20
2019-05-07T02:18:42.482Z,57.00
2019-05-07T02:21:12.855Z,56.90
2019-05-07T02:23:42.549Z,56.20
2019-05-07T02:26:13.311Z,56.40
2019-05-07T02:28:42.743Z,56.50
2019-05-07T02:31:14.998Z,58.00
2019-05-07T02:33:43.354Z,61.20
2019-05-07T02:36:14.186Z,59.60
2019-05-07T02:38:56.537Z,61.10
2019-05-07T02:41:33.265Z,58.60
2019-05-07T02:44:04.208Z,59.90
2019-05-07T02:46:36.254Z,58.80
2019-05-07T02:49:09.237Z,57.70
2019-05-07T02:51:53.118Z,58.20
2019-05-07T02:54:24.176Z,58.20
2019-05-07T02:56:53.535Z,57.70
2019-05-07T02:59:23.366Z,60.70
2019-05-07T03:01:53.746Z,60.30
2019-05-07T03:04:24.972Z,59.80
2019-05-07T03:06:54.223Z,60.50
2019-05-07T03:09:23.646Z,61.00
2019-05-07T03:11:52.975Z,62.80
2019-05-07T03:14:23.344Z,63.30
2019-05-07T03:16:53.664Z,62.80
2019-05-07T03:19:24.177Z,62.10
2019-05-07T03:21:54.347Z,61.50
2019-05-07T03:24:34.207Z,64.60
2019-05-07T03:27:03.368Z,68.10
2019-05-07T03:29:33.307Z,66.20
2019-05-07T03:32:26.688Z,63.80
2019-05-07T03:34:57.793Z,63.00
2019-05-07T03:37:31.752Z,66.60
2019-05-07T03:39:58.247Z,63.70
2019-05-07T03:42:27.100Z,68.20
2019-05-07T03:44:57.512Z,63.90
2019-05-07T03:47:33.102Z,63.00
2019-05-07T03:50:03.253Z,62.80
2019-05-07T03:52:33.493Z,62.10
2019-05-07T03:55:03.698Z,62.40
2019-05-07T03:57:33.411Z,61.20
2019-05-07T04:00:04.291Z,61.30
2019-05-07T04:02:33.603Z,62.60
2019-05-07T04:05:04.273Z,61.90
2019-05-07T04:07:33.723Z,62.10
2019-05-07T04:10:04.860Z,63.70
2019-05-07T04:12:34.430Z,63.30
2019-05-07T04:15:03.732Z,63.80
2019-05-07T04:17:33.824Z,64.10
2019-05-07T04:20:04.546Z,64.90
2019-05-07T04:22:34.812Z,64.60
2019-05-07T04:25:20.263Z,67.40
2019-05-07T04:28:10.304Z,67.60
2019-05-07T04:30:39.682Z,68.20
2019-05-07T04:33:12.889Z,67.70
2019-05-07T04:35:45.125Z,68.50
2019-05-07T04:38:14.062Z,69.60
2019-05-07T04:40:43.672Z,69.30
2019-05-07T04:43:13.538Z,69.90
2019-05-07T04:45:43.460Z,67.80
2019-05-07T04:48:14.250Z,67.10
2019-05-07T04:50:47.678Z,68.70
2019-05-07T04:53:15.084Z,69.00
2019-05-07T04:55:44.322Z,67.90
2019-05-07T04:58:14.166Z,67.30
2019-05-07T05:00:43.552Z,67.00
2019-05-07T05:03:24.064Z,69.80
2019-05-07T05:05:53.677Z,68.60
2019-05-07T05:08:23.589Z,65.40
2019-05-07T05:10:53.731Z,65.20
2019-05-07T05:13:23.884Z,63.30
2019-05-07T05:15:53.033Z,62.70
2019-05-07T05:18:22.423Z,63.60
2019-05-07T05:20:52.809Z,64.70
2019-05-07T05:23:35.446Z,64.30
2019-05-07T05:26:04.268Z,64.60
2019-05-07T05:28:33.130Z,64.10
2019-05-07T05:31:03.540Z,60.80
2019-05-07T05:33:32.508Z,62.20
2019-05-07T05:36:03.058Z,60.40
2019-05-07T05:38:32.898Z,57.30
2019-05-07T05:41:02.879Z,57.70
2019-05-07T05:43:48.424Z,58.30
2019-05-07T05:46:19.107Z,58.70
2019-05-07T05:48:47.927Z,59.30
2019-05-07T05:51:33.444Z,59.20
2019-05-07T05:54:12.812Z,59.50
2019-05-07T05:56:55.268Z,59.10
2019-05-07T05:59:37.108Z,58.60
2019-05-07T06:02:15.811Z,59.50
2019-05-07T06:05:02.343Z,60.60
2019-05-07T06:07:35.645Z,61.10
2019-05-07T06:10:22.503Z,61.80
2019-05-07T06:12:53.127Z,62.30
2019-05-07T06:15:41.917Z,63.40
2019-05-07T06:18:28.673Z,64.00
2019-05-07T06:20:59.072Z,63.80
2019-05-07T06:23:33.173Z,63.00
2019-05-07T06:26:05.099Z,61.00
2019-05-07T06:28:33.066Z,60.50
2019-05-07T06:31:02.245Z,61.00
2019-05-07T06:33:32.402Z,62.00
2019-05-07T06:36:02.827Z,62.30
2019-05-07T06:38:33.683Z,63.70
2019-05-07T06:41:04.079Z,64.20
2019-05-07T06:43:34.508Z,63.90
2019-05-07T06:46:05.045Z,64.20
2019-05-07T06:48:41.801Z,63.90
2019-05-07T06:51:04.423Z,64.20
2019-05-07T06:53:33.641Z,63.10
2019-05-07T06:56:03.900Z,62.70
2019-05-07T06:58:34.360Z,62.30
2019-05-07T07:01:12.090Z,61.60
2019-05-07T07:03:45.870Z,61.80
2019-05-07T07:06:22.971Z,61.40
2019-05-07T07:09:09.659Z,60.60
2019-05-07T07:11:43.170Z,60.00
2019-05-07T07:14:12.064Z,58.90
2019-05-07T07:16:42.043Z,59.20
2019-05-07T07:19:12.465Z,58.20
2019-05-07T07:21:42.142Z,57.60
2019-05-07T07:24:12.718Z,56.40
2019-05-07T07:26:42.205Z,55.60
2019-05-07T07:29:12.925Z,56.50
2019-05-07T07:31:52.777Z,55.10
2019-05-07T07:34:22.873Z,53.00
2019-05-07T07:37:09.783Z,52.50
2019-05-07T07:39:36.351Z,53.50
2019-05-07T07:42:06.884Z,51.90
2019-05-07T07:44:35.692Z,52.40
2019-05-07T07:47:04.502Z,52.10
2019-05-07T07:49:33.346Z,52.50
2019-05-07T07:52:03.141Z,51.60
2019-05-07T07:54:32.306Z,51.70
2019-05-07T07:57:02.751Z,51.20
2019-05-07T07:59:49.231Z,51.50
2019-05-07T08:02:23.027Z,50.80
2019-05-07T08:04:52.756Z,49.50
2019-05-07T08:07:22.852Z,49.70
2019-05-07T08:09:52.087Z,50.70
2019-05-07T08:12:22.176Z,50.00
2019-05-07T08:14:51.936Z,50.10
2019-05-07T08:17:22.390Z,50.80
2019-05-07T08:19:52.011Z,50.60
2019-05-07T08:22:22.589Z,50.80
2019-05-07T08:24:52.035Z,50.80
2019-05-07T08:27:22.163Z,51.60
2019-05-07T08:29:52.489Z,49.70
2019-05-07T08:32:28.871Z,50.10
2019-05-07T08:34:59.301Z,49.90
2019-05-07T08:37:28.119Z,50.70
2019-05-07T08:39:56.963Z,51.30
2019-05-07T08:42:25.802Z,49.40
2019-05-07T08:44:56.218Z,49.70
2019-05-07T08:47:32.714Z,49.50
2019-05-07T08:50:02.918Z,49.80
2019-05-07T08:52:32.681Z,50.00
2019-05-07T08:55:02.245Z,50.60
2019-05-07T08:57:31.867Z,50.30
2019-05-07T09:00:02.319Z,50.00
2019-05-07T09:02:32.577Z,48.80
2019-05-07T09:05:02.909Z,50.30
2019-05-07T09:07:32.339Z,48.50
2019-05-07T09:10:02.501Z,49.30
2019-05-07T09:12:31.953Z,48.70
2019-05-07T09:15:02.176Z,49.20
2019-05-07T09:17:31.841Z,48.20
2019-05-07T09:20:02.626Z,49.70
2019-05-07T09:22:32.310Z,47.40
2019-05-07T09:25:03.153Z,47.70
2019-05-07T09:27:33.531Z,47.10
2019-05-07T09:30:19.184Z,45.50
2019-05-07T09:32:51.972Z,47.60
2019-05-07T09:35:24.536Z,45.70
2019-05-07T09:37:53.411Z,46.40
2019-05-07T09:40:22.227Z,46.70
2019-05-07T09:42:52.544Z,45.90
2019-05-07T09:45:22.464Z,46.60
2019-05-07T09:47:52.280Z,46.50
2019-05-07T09:50:22.063Z,47.30
2019-05-07T09:52:51.830Z,47.70
2019-05-07T09:55:23.152Z,47.60
2019-05-07T09:57:52.745Z,47.80
2019-05-07T10:00:22.687Z,48.00
2019-05-07T10:02:52.828Z,48.90
2019-05-07T10:05:21.923Z,49.10
2019-05-07T10:07:52.597Z,48.70
2019-05-07T10:10:22.343Z,48.80
2019-05-07T10:13:02.330Z,47.60
2019-05-07T10:15:33.035Z,46.90
2019-05-07T10:18:15.507Z,48.10
2019-05-07T10:20:44.318Z,48.50
2019-05-07T10:23:23.203Z,48.00
2019-05-07T10:25:53.563Z,47.60
2019-05-07T10:28:23.183Z,46.40
2019-05-07T10:30:52.424Z,46.40
2019-05-07T10:33:22.881Z,47.30
2019-05-07T10:35:52.949Z,46.80
2019-05-07T10:38:22.075Z,44.50
2019-05-07T10:40:51.008Z,44.00
2019-05-07T10:43:22.094Z,44.40
2019-05-07T10:45:54.621Z,44.50
2019-05-07T10:48:25.040Z,45.40
2019-05-07T10:50:55.448Z,44.30
2019-05-07T10:53:24.534Z,44.10
2019-05-07T10:55:53.373Z,45.30
2019-05-07T10:58:22.194Z,45.20
2019-05-07T11:00:52.328Z,46.70
2019-05-07T11:03:21.942Z,48.00
2019-05-07T11:05:51.103Z,45.70
2019-05-07T11:08:21.798Z,45.20
2019-05-07T11:10:52.063Z,45.20
2019-05-07T11:13:21.887Z,45.70
2019-05-07T11:15:52.632Z,43.30
2019-05-07T11:18:26.030Z,44.00
2019-05-07T11:20:54.840Z,43.10
2019-05-07T11:23:23.717Z,42.60
2019-05-07T11:25:52.766Z,41.70
2019-05-07T11:28:22.701Z,42.80
2019-05-07T11:30:51.727Z,44.60
2019-05-07T11:33:22.019Z,44.60
2019-05-07T11:35:52.834Z,46.50
2019-05-07T11:38:24.814Z,45.00
2019-05-07T11:40:52.256Z,46.20
2019-05-07T11:43:25.369Z,45.50
2019-05-07T11:45:59.188Z,44.90
2019-05-07T11:48:28.908Z,46.90
2019-05-07T11:51:12.311Z,45.80
2019-05-07T11:54:01.952Z,45.10
2019-05-07T11:56:32.803Z,45.40
2019-05-07T11:59:02.691Z,47.00
2019-05-07T12:01:43.539Z,47.50
2019-05-07T12:04:03.450Z,46.40
2019-05-07T12:06:32.287Z,47.00
2019-05-07T12:09:03.039Z,46.80
2019-05-07T12:11:32.211Z,47.00
2019-05-07T12:14:02.083Z,46.00
2019-05-07T12:16:32.140Z,46.40
2019-05-07T12:19:02.189Z,44.60
2019-05-07T12:21:31.684Z,45.90
2019-05-07T12:24:02.152Z,46.20
2019-05-07T12:26:32.758Z,45.60
2019-05-07T12:29:01.613Z,45.80
2019-05-07T12:31:37.870Z,47.00
2019-05-07T12:34:08.300Z,45.30
2019-05-07T12:36:37.171Z,46.00
2019-05-07T12:39:08.748Z,44.60
2019-05-07T12:41:37.789Z,44.80
2019-05-07T12:44:09.897Z,46.70
2019-05-07T12:46:38.852Z,45.40
2019-05-07T12:49:07.704Z,44.60
2019-05-07T12:51:44.297Z,45.10
2019-05-07T12:54:23.951Z,43.80
2019-05-07T12:56:52.843Z,46.30
2019-05-07T12:59:21.949Z,44.40
2019-05-07T13:02:21.699Z,45.40
2019-05-07T13:04:41.635Z,46.60
2019-05-07T13:07:11.715Z,49.10
2019-05-07T13:09:42.657Z,47.60
2019-05-07T13:12:11.237Z,45.20
2019-05-07T13:14:40.128Z,43.80
2019-05-07T13:17:08.985Z,45.20
2019-05-07T13:19:39.262Z,44.00
2019-05-07T13:22:08.502Z,43.80
2019-05-07T13:24:37.416Z,43.20
2019-05-07T13:27:06.255Z,46.30
2019-05-07T13:29:35.127Z,45.80
2019-05-07T13:32:05.200Z,44.10
2019-05-07T13:34:34.670Z,43.60
2019-05-07T13:37:14.139Z,44.40
2019-05-07T13:39:44.582Z,45.60
2019-05-07T13:42:32.010Z,45.50
2019-05-07T13:45:02.958Z,46.00
2019-05-07T13:47:33.957Z,45.70
2019-05-07T13:50:02.937Z,46.00
2019-05-07T13:52:33.414Z,44.50
2019-05-07T13:55:02.331Z,44.70
2019-05-07T13:57:32.207Z,44.00
2019-05-07T14:00:02.371Z,45.80
2019-05-07T14:02:32.791Z,44.10
2019-05-07T14:05:01.641Z,44.20
2019-05-07T14:07:32.292Z,44.40
2019-05-07T14:10:02.084Z,43.90
2019-05-07T14:12:33.509Z,42.90
2019-05-07T14:15:02.266Z,42.60
2019-05-07T14:17:31.562Z,43.40
2019-05-07T14:20:02.359Z,43.00
2019-05-07T14:22:31.850Z,47.40
2019-05-07T14:25:00.915Z,44.80
2019-05-07T14:27:29.764Z,44.10
2019-05-07T14:29:58.645Z,42.20
2019-05-07T14:32:44.086Z,43.10
2019-05-07T14:35:24.213Z,43.60
2019-05-07T14:37:57.057Z,43.90
2019-05-07T14:40:25.891Z,44.40
2019-05-07T14:42:59.049Z,45.40
2019-05-07T14:45:27.870Z,43.50
2019-05-07T14:47:56.815Z,43.50
2019-05-07T14:50:25.621Z,44.60
2019-05-07T14:52:55.275Z,46.60
2019-05-07T14:55:24.225Z,46.10
2019-05-07T14:57:53.039Z,45.10
2019-05-07T15:00:22.571Z,46.00
2019-05-07T15:02:52.541Z,45.40
2019-05-07T15:05:26.420Z,44.90
2019-05-07T15:08:07.346Z,44.00
2019-05-07T15:10:25.859Z,43.50
2019-05-07T15:12:54.715Z,44.50
2019-05-07T15:15:23.551Z,44.20
2019-05-07T15:18:02.803Z,45.90
2019-05-07T15:20:33.009Z,45.20
2019-05-07T15:23:04.905Z,44.30
2019-05-07T15:25:33.807Z,46.90
2019-05-07T15:28:03.467Z,44.80
2019-05-07T15:30:33.923Z,45.70
2019-05-07T15:33:02.782Z,45.20
2019-05-07T15:35:32.037Z,44.80
2019-05-07T15:38:02.428Z,44.70
2019-05-07T15:40:33.011Z,45.50
2019-05-07T15:43:02.578Z,46.80
2019-05-07T15:45:31.450Z,45.70
2019-05-07T15:48:02.080Z,47.80
2019-05-07T15:50:32.278Z,49.20
2019-05-07T15:53:08.759Z,46.90
2019-05-07T15:55:37.650Z,46.00
2019-05-07T15:58:06.496Z,46.20
2019-05-07T16:00:36.766Z,46.70
2019-05-07T16:03:19.189Z,47.10
2019-05-07T16:05:47.197Z,46.30
2019-05-07T16:08:17.595Z,45.80
2019-05-07T16:10:46.459Z,46.50
2019-05-07T16:13:22.979Z,48.90
2019-05-07T16:15:52.879Z,49.00
2019-05-07T16:18:23.844Z,47.10
2019-05-07T16:20:52.874Z,47.80
2019-05-07T16:23:22.093Z,47.70
2019-05-07T16:25:52.801Z,47.40
2019-05-07T16:28:22.020Z,48.60
2019-05-07T16:30:52.171Z,49.60
2019-05-07T16:33:21.253Z,47.60
2019-05-07T16:35:50.108Z,48.00
2019-05-07T16:38:19.033Z,50.10
2019-05-07T16:40:47.884Z,50.60
2019-05-07T16:43:16.798Z,49.70
2019-05-07T16:45:45.622Z,49.90
2019-05-07T16:48:14.484Z,50.80
2019-05-07T16:50:43.368Z,50.90
2019-05-07T16:53:26.316Z,51.40
2019-05-07T16:55:43.474Z,51.70
2019-05-07T16:58:29.155Z,50.90
2019-05-07T17:01:00.179Z,50.80
2019-05-07T17:03:33.993Z,52.00
2019-05-07T17:06:02.893Z,51.90
2019-05-07T17:08:33.378Z,52.40
2019-05-07T17:11:03.071Z,53.40
2019-05-07T17:13:32.155Z,54.00
2019-05-07T17:16:03.366Z,53.00
2019-05-07T17:18:32.805Z,54.00
2019-05-07T17:21:02.178Z,53.40
2019-05-07T17:23:43.787Z,53.10
2019-05-07T17:26:02.186Z,52.40
2019-05-07T17:28:31.920Z,54.00
2019-05-07T17:31:03.073Z,53.00
2019-05-07T17:33:32.054Z,53.10
2019-05-07T17:36:02.474Z,53.40
2019-05-07T17:38:32.188Z,53.30
2019-05-07T17:41:10.779Z,54.30
2019-05-07T17:43:32.505Z,53.90
2019-05-07T17:46:02.778Z,54.30
2019-05-07T17:48:32.991Z,54.50
2019-05-07T17:51:06.654Z,54.60
2019-05-07T17:53:35.583Z,53.80
2019-05-07T17:56:05.331Z,55.00
2019-05-07T17:58:34.226Z,54.70
2019-05-07T18:01:04.602Z,55.70
2019-05-07T18:03:35.055Z,58.30
2019-05-07T18:06:04.560Z,59.60
2019-05-07T18:08:33.403Z,60.50
2019-05-07T18:11:02.689Z,61.60
2019-05-07T18:13:32.914Z,61.50
2019-05-07T18:16:06.081Z,61.90
2019-05-07T18:18:34.984Z,62.60
2019-05-07T18:21:05.188Z,63.50
2019-05-07T18:23:34.452Z,64.10
2019-05-07T18:26:03.712Z,64.20
2019-05-07T18:28:32.680Z,63.40
2019-05-07T18:31:02.008Z,64.30
2019-05-07T18:33:33.578Z,64.10
2019-05-07T18:36:03.196Z,64.90
2019-05-07T18:38:32.917Z,65.90
2019-05-07T18:41:02.845Z,66.20
2019-05-07T18:43:33.145Z,66.50
2019-05-07T18:46:02.451Z,66.70
2019-05-07T18:48:31.658Z,66.90
2019-05-07T18:51:02.537Z,66.40
2019-05-07T18:53:31.853Z,67.20
2019-05-07T18:56:01.710Z,67.20
2019-05-07T18:58:31.950Z,67.30
2019-05-07T19:01:02.773Z,67.60
2019-05-07T19:03:32.480Z,67.80
2019-05-07T19:06:02.842Z,68.20
2019-05-07T19:08:32.680Z,68.40
2019-05-07T19:11:05.380Z,68.80
2019-05-07T19:13:32.927Z,69.30
2019-05-07T19:16:02.984Z,69.40
2019-05-07T19:18:32.442Z,69.40
2019-05-07T19:21:01.310Z,69.40
2019-05-07T19:23:30.213Z,69.20
2019-05-07T19:25:59.082Z,68.80
2019-05-07T19:28:27.936Z,68.70
2019-05-07T19:30:56.806Z,69.20
2019-05-07T19:33:27.171Z,68.80
2019-05-07T19:35:56.362Z,67.80
2019-05-07T19:38:25.198Z,68.70
2019-05-07T19:40:54.044Z,68.10
2019-05-07T19:43:22.934Z,68.30
2019-05-07T19:45:52.343Z,67.80
2019-05-07T19:48:23.086Z,67.70
2019-05-07T19:50:52.739Z,67.60
2019-05-07T19:53:23.515Z,67.20
2019-05-07T19:56:12.563Z,67.00
2019-05-07T19:58:41.900Z,67.20
2019-05-07T20:01:12.504Z,67.20
2019-05-07T20:03:43.292Z,67.00
2019-05-07T20:06:12.967Z,66.70
2019-05-07T20:08:43.751Z,66.60
2019-05-07T20:11:14.443Z,66.20
2019-05-07T20:13:43.824Z,65.90
2019-05-07T20:16:20.253Z,66.10
2019-05-07T20:18:49.167Z,66.10
2019-05-07T20:21:18.003Z,66.40
2019-05-07T20:23:46.862Z,66.30
2019-05-07T20:26:15.747Z,66.40
2019-05-07T20:28:44.604Z,66.80
2019-05-07T20:31:13.509Z,67.00
2019-05-07T20:33:42.513Z,66.90
2019-05-07T20:36:11.536Z,66.90
2019-05-07T20:38:42.539Z,67.30
2019-05-07T20:41:12.934Z,67.10
2019-05-07T20:43:42.835Z,67.30
2019-05-07T20:46:12.160Z,67.40
2019-05-07T20:48:42.314Z,67.90
2019-05-07T20:51:12.530Z,68.00
2019-05-07T20:53:52.544Z,68.80
2019-05-07T20:56:23.132Z,69.20
2019-05-07T20:58:52.143Z,70.30
2019-05-07T21:01:21.974Z,69.90
2019-05-07T21:03:52.745Z,70.10
2019-05-07T21:06:22.531Z,70.10
2019-05-07T21:08:51.682Z,70.40
2019-05-07T21:11:22.566Z,70.10
2019-05-07T21:13:52.284Z,70.50
2019-05-07T21:16:22.119Z,70.00
2019-05-07T21:18:52.791Z,69.20
2019-05-07T21:21:21.997Z,69.30
2019-05-07T21:23:52.714Z,69.90
2019-05-07T21:26:22.465Z,70.10
2019-05-07T21:28:52.842Z,70.00
2019-05-07T21:31:22.736Z,69.30
2019-05-07T21:33:52.475Z,69.30
2019-05-07T21:36:22.898Z,69.30
2019-05-07T21:38:52.015Z,69.50
2019-05-07T21:41:22.761Z,69.50
2019-05-07T21:43:52.804Z,69.70
2019-05-07T21:46:22.360Z,70.00
2019-05-07T21:48:53.568Z,69.90
2019-05-07T21:51:22.906Z,70.10
2019-05-07T21:53:59.423Z,70.50
2019-05-07T21:56:46.269Z,70.70
2019-05-07T21:59:16.744Z,70.60
2019-05-07T22:01:52.481Z,70.60
2019-05-07T22:04:20.663Z,70.90
2019-05-07T22:06:49.505Z,70.90
2019-05-07T22:09:18.946Z,70.90
2019-05-07T22:11:47.822Z,71.20
2019-05-07T22:14:16.681Z,71.50
2019-05-07T22:16:45.570Z,71.40
2019-05-07T22:19:14.446Z,71.70
2019-05-07T22:21:43.495Z,71.50
2019-05-07T22:24:13.073Z,71.50
2019-05-07T22:26:43.006Z,71.50
2019-05-07T22:29:12.680Z,71.30
2019-05-07T22:31:44.233Z,71.10
2019-05-07T22:34:22.261Z,71.30
2019-05-07T22:36:52.490Z,71.50
2019-05-07T22:39:22.053Z,72.10
2019-05-07T22:41:51.115Z,72.00
2019-05-07T22:44:23.716Z,72.50
2019-05-07T22:46:52.602Z,72.00
2019-05-07T22:49:22.896Z,71.70
2019-05-07T22:51:52.569Z,71.90
2019-05-07T22:54:22.622Z,72.70
2019-05-07T22:57:08.892Z,73.20
2019-05-07T22:59:37.795Z,72.40
2019-05-07T23:02:07.062Z,73.10
2019-05-07T23:04:35.956Z,72.50
2019-05-07T23:07:04.812Z,71.90
2019-05-07T23:09:33.660Z,71.90
2019-05-07T23:12:02.557Z,71.50
2019-05-07T23:14:32.978Z,71.10
2019-05-07T23:17:02.314Z,70.70
2019-05-07T23:19:32.642Z,70.30
2019-05-07T23:22:02.757Z,70.40
2019-05-07T23:24:31.949Z,71.30
2019-05-07T23:27:00.847Z,70.70
2019-05-07T23:29:29.747Z,71.20
2019-05-07T23:31:58.598Z,72.10
2019-05-07T23:34:27.442Z,71.60
2019-05-07T23:36:56.330Z,71.10
2019-05-07T23:39:26.753Z,71.40
2019-05-07T23:41:57.206Z,71.90
2019-05-07T23:44:26.085Z,72.20
2019-05-07T23:46:55.334Z,72.20
2019-05-07T23:49:24.214Z,72.30
2019-05-07T23:51:53.329Z,72.10
2019-05-07T23:54:23.161Z,72.40
2019-05-07T23:57:05.047Z,73.00
2019-05-07T23:59:22.801Z,73.40
